Time;durP1;ratioP1;P1;durP2;ratioP2;P2;SDS_P1;SDS_P2;PMS_P1;PMS_P2;Temp;Humidity;BMP_temperature;BMP_pressure;BME280_temperature;BME280_humidity;BME280_pressure;Samples;Min_cycle;Max_cycle;Signal;HPM_P1;HPM_P2
2024/01/22 00:00:49;;;;;;;10.98;4.38;;;;;;;7.04;100.00;100865.25;4956857;29;20023;-91
2024/01/22 00:03:24;;;;;;;8.73;4.05;;;;;;;6.94;100.00;100817.97;4955984;28;20023;-92
2024/01/22 00:05:49;;;;;;;9.95;4.32;;;;;;;7.07;100.00;100818.78;4955782;28;20339;-91
2024/01/22 00:08:14;;;;;;;8.37;4.30;;;;;;;7.13;100.00;100846.31;4956428;29;20031;-92
2024/01/22 00:13:47;;;;;;;9.45;4.38;;;;;;;7.14;100.00;100817.06;4957043;29;20508;-92
2024/01/22 00:16:24;;;;;;;9.63;4.15;;;;;;;7.08;100.00;100799.88;4956346;29;20019;-92
2024/01/22 00:18:50;;;;;;;10.13;4.53;;;;;;;7.16;100.00;100806.72;4955957;29;20035;-91
2024/01/22 00:21:59;;;;;;;9.10;3.90;;;;;;;7.29;100.00;100820.50;4955714;29;20498;-92
2024/01/22 00:24:24;;;;;;;7.90;3.90;;;;;;;7.13;100.00;100802.44;4956241;29;20031;-93
2024/01/22 00:27:11;;;;;;;8.77;3.87;;;;;;;7.24;100.00;100813.59;4956351;29;20042;-92
2024/01/22 00:29:37;;;;;;;7.75;4.28;;;;;;;7.23;100.00;100778.31;4955985;28;20055;-92
2024/01/22 00:32:23;;;;;;;8.27;4.13;;;;;;;7.22;100.00;100799.84;4955766;29;20065;-92
2024/01/22 00:34:48;;;;;;;9.07;3.72;;;;;;;7.24;100.00;100786.94;4956642;29;20557;-92
2024/01/22 00:37:35;;;;;;;7.70;3.90;;;;;;;7.32;100.00;100771.44;4955209;29;20031;-91
2024/01/22 00:40:01;;;;;;;8.00;3.83;;;;;;;7.40;100.00;100760.22;4956211;29;20110;-92
2024/01/22 00:42:45;;;;;;;10.33;4.10;;;;;;;7.44;100.00;100745.56;4955087;29;20522;-92
2024/01/22 00:45:10;;;;;;;9.45;3.80;;;;;;;7.25;100.00;100721.56;4956196;29;20019;-93
2024/01/22 00:48:22;;;;;;;8.27;3.77;;;;;;;7.39;100.00;100739.56;4955984;29;20488;-92
2024/01/22 00:50:47;;;;;;;8.63;3.90;;;;;;;7.40;100.00;100718.88;4955586;29;20031;-92
2024/01/22 00:53:28;;;;;;;9.80;4.10;;;;;;;7.57;100.00;100720.56;4970217;29;20087;-91
2024/01/22 00:56:15;;;;;;;10.32;3.75;;;;;;;7.53;100.00;100719.72;4956287;29;20090;-92
2024/01/22 00:58:52;;;;;;;7.65;3.63;;;;;;;7.47;100.00;100726.63;4955384;29;20209;-92
2024/01/22 01:01:18;;;;;;;10.00;3.83;;;;;;;7.53;100.00;100740.38;4955325;29;20447;-91
2024/01/22 01:04:08;;;;;;;9.03;3.50;;;;;;;7.59;100.00;100703.34;4955825;29;20111;-93
2024/01/22 01:06:53;;;;;;;8.50;3.80;;;;;;;7.56;100.00;100708.50;4954895;28;20050;-93
2024/01/22 01:10:14;;;;;;;7.72;3.53;;;;;;;7.55;100.00;100707.63;4955531;29;20130;-92
2024/01/22 01:12:40;;;;;;;8.63;3.80;;;;;;;7.66;100.00;100712.75;4939896;28;20058;-94
2024/01/22 01:15:39;;;;;;;4.97;3.30;;;;;;;7.70;100.00;100714.47;4954569;29;20031;-93
2024/01/22 01:18:13;;;;;;;6.70;3.20;;;;;;;7.58;100.00;100699.88;4954612;29;20027;-92
2024/01/22 01:20:53;;;;;;;6.32;3.45;;;;;;;7.73;100.00;100700.66;4955258;29;20384;-92
2024/01/22 01:23:18;;;;;;;7.75;3.15;;;;;;;7.62;100.00;100692.97;4955813;29;20384;-92
2024/01/22 01:25:44;;;;;;;6.03;3.23;;;;;;;7.68;100.00;100692.06;4955499;29;20118;-92
2024/01/22 01:28:28;;;;;;;6.00;3.00;;;;;;;7.79;100.00;100697.19;4955566;29;20027;-92
2024/01/22 01:31:13;;;;;;;5.45;3.30;;;;;;;7.81;100.00;100682.53;4954904;29;20039;-92
2024/01/22 01:33:57;;;;;;;7.53;3.33;;;;;;;7.86;100.00;100697.16;4956265;29;20121;-91
2024/01/22 01:36:22;;;;;;;5.97;3.30;;;;;;;7.86;100.00;100675.59;4955497;29;20887;-92
2024/01/22 01:39:06;;;;;;;6.23;3.17;;;;;;;7.92;100.00;100677.28;4955138;28;20027;-93
2024/01/22 01:41:31;;;;;;;5.68;3.20;;;;;;;7.86;100.00;100655.81;4958322;29;20016;-91
2024/01/22 01:44:19;;;;;;;5.90;3.10;;;;;;;7.99;100.00;100672.06;4959820;29;20037;-92
2024/01/22 01:47:29;;;;;;;6.43;2.90;;;;;;;7.91;100.00;100660.06;4959873;29;20464;-94
2024/01/22 01:49:54;;;;;;;6.63;3.05;;;;;;;7.86;100.00;100650.63;4959539;29;20027;-93
2024/01/22 01:52:41;;;;;;;4.80;2.87;;;;;;;8.00;100.00;100671.19;4959147;29;20058;-92
2024/01/22 01:55:28;;;;;;;6.78;3.00;;;;;;;8.09;100.00;100664.25;4960121;29;20075;-92
2024/01/22 01:58:17;;;;;;;5.35;3.20;;;;;;;8.02;100.00;100640.16;4975377;29;20094;-91
2024/01/22 02:00:47;;;;;;;6.55;3.10;;;;;;;7.99;100.00;100630.72;4959910;29;20023;-92
2024/01/22 02:03:25;;;;;;;6.55;2.95;;;;;;;8.05;100.00;100632.41;4959536;29;20050;-93
2024/01/22 02:05:51;;;;;;;4.82;2.80;;;;;;;7.95;100.00;100621.25;4959799;28;20026;-92
2024/01/22 02:09:07;;;;;;;5.63;3.20;;;;;;;8.19;100.00;100643.47;4957617;28;20039;-92
2024/01/22 02:11:32;;;;;;;7.18;3.08;;;;;;;8.22;100.00;100637.41;4960303;29;20039;-92
2024/01/22 02:14:15;;;;;;;7.57;2.77;;;;;;;8.08;100.00;100605.66;4960156;29;20046;-92
2024/01/22 02:16:42;;;;;;;7.63;3.10;;;;;;;8.19;100.00;100625.38;4961239;29;20064;-92
2024/01/22 02:19:30;;;;;;;5.32;2.70;;;;;;;8.26;100.00;100617.56;4962871;29;20030;-91
2024/01/22 02:21:55;;;;;;;4.72;2.60;;;;;;;8.18;100.00;100609.88;4964801;29;20038;-91
2024/01/22 02:24:41;;;;;;;4.63;2.73;;;;;;;8.18;100.00;100595.22;4967307;28;20035;-89
2024/01/22 02:27:21;;;;;;;5.25;2.70;;;;;;;8.16;100.00;100580.63;4971736;29;20027;-91
2024/01/22 02:29:47;;;;;;;6.60;3.13;;;;;;;8.09;100.00;100566.88;4963482;29;20042;-91
2024/01/22 02:32:12;;;;;;;3.37;2.70;;;;;;;8.16;100.00;100584.03;4961427;29;20035;-91
2024/01/22 02:35:00;;;;;;;4.37;2.87;;;;;;;8.23;100.00;100577.09;4958700;29;20027;-92
2024/01/22 02:37:26;;;;;;;4.55;2.70;;;;;;;8.23;100.00;100551.25;4957827;29;20110;-91
2024/01/22 02:40:10;;;;;;;4.40;2.73;;;;;;;8.28;100.00;100559.78;4958080;29;20046;-91
2024/01/22 02:42:35;;;;;;;4.97;2.70;;;;;;;8.12;100.00;100533.22;4957922;29;20062;-90
2024/01/22 02:45:21;;;;;;;6.23;2.73;;;;;;;8.26;100.00;100527.94;4958466;29;20019;-92
2024/01/22 02:47:46;;;;;;;5.05;2.60;;;;;;;8.28;100.00;100505.50;4957498;29;20027;-90
2024/01/22 02:50:20;;;;;;;4.17;2.70;;;;;;;8.31;100.00;100512.38;4957569;29;20106;-91
2024/01/22 02:53:03;;;;;;;4.03;2.40;;;;;;;8.18;100.00;100488.38;4956946;28;20086;-92
2024/01/22 02:55:29;;;;;;;5.25;2.75;;;;;;;8.28;100.00;100505.50;4957030;29;20063;-91
2024/01/22 02:58:00;;;;;;;4.73;2.67;;;;;;;8.17;100.00;100494.41;4957279;28;20054;-91
2024/01/22 03:00:25;;;;;;;4.35;2.55;;;;;;;8.28;100.00;100515.00;4965622;29;20044;-90
2024/01/22 03:03:09;;;;;;;4.50;2.50;;;;;;;8.12;100.00;100471.19;4962635;29;20384;-92
2024/01/22 03:05:34;;;;;;;3.45;2.40;;;;;;;8.23;100.00;100483.16;4956627;29;20035;-91
2024/01/22 03:08:37;;;;;;;3.90;2.70;;;;;;;8.27;100.00;100485.72;4957566;29;20081;-94
2024/01/22 03:11:06;;;;;;;4.35;2.40;;;;;;;8.16;100.00;100472.88;4938186;29;20036;-92
2024/01/22 03:13:31;;;;;;;3.25;2.40;;;;;;;8.19;100.00;100461.66;4937773;29;20099;-92
2024/01/22 03:15:59;;;;;;;3.70;2.50;;;;;;;8.16;100.00;100466.88;4938228;29;20059;-95
2024/01/22 03:18:29;;;;;;;5.07;2.40;;;;;;;8.10;100.00;100459.16;4938333;29;20028;-93
2024/01/22 03:20:54;;;;;;;5.10;2.20;;;;;;;8.13;100.00;100456.56;4938334;29;20039;-95
2024/01/22 03:23:29;;;;;;;4.43;2.30;;;;;;;8.08;100.00;100438.53;4937856;29;20024;-93
2024/01/22 03:25:54;;;;;;;4.15;2.45;;;;;;;8.06;100.00;100449.72;4938311;29;20028;-93
2024/01/22 03:28:35;;;;;;;3.17;2.37;;;;;;;8.04;100.00;100437.72;4938324;29;20030;-92
2024/01/22 03:31:19;;;;;;;4.15;2.40;;;;;;;8.08;100.00;100435.06;4938205;29;20165;-93
2024/01/22 03:33:48;;;;;;;3.90;2.40;;;;;;;8.17;100.00;100446.16;4937689;29;20099;-95
2024/01/22 03:36:25;;;;;;;3.17;2.30;;;;;;;8.22;100.00;100425.44;4938230;29;20027;-92
2024/01/22 03:38:59;;;;;;;3.45;2.10;;;;;;;8.22;100.00;100424.59;4937930;29;20020;-93
2024/01/22 03:41:43;;;;;;;2.20;1.95;;;;;;;8.23;100.00;100441.78;4937452;29;20023;-94
2024/01/22 03:44:11;;;;;;;3.10;2.20;;;;;;;8.14;100.00;100432.44;4937818;29;20051;-94
2024/01/22 03:46:36;;;;;;;3.22;2.25;;;;;;;8.26;100.00;100458.13;4937443;29;20122;-93
2024/01/22 03:49:02;;;;;;;2.50;2.10;;;;;;;8.28;100.00;100419.31;4937475;29;20408;-92
2024/01/22 03:51:27;;;;;;;2.90;2.30;;;;;;;8.30;100.00;100417.59;4936771;29;20070;-93
2024/01/22 03:54:11;;;;;;;2.63;2.20;;;;;;;8.21;100.00;100407.38;4937963;29;20027;-93
2024/01/22 03:56:37;;;;;;;3.30;2.20;;;;;;;8.37;100.00;100433.88;4938300;29;20118;-96
2024/01/22 03:59:19;;;;;;;3.63;2.10;;;;;;;8.28;100.00;100404.66;4937202;29;20034;-95
2024/01/22 04:01:56;;;;;;;2.05;1.85;;;;;;;8.26;100.00;100414.19;4937739;29;20024;-94
2024/01/22 04:04:22;;;;;;;2.00;1.90;;;;;;;8.39;100.00;100414.88;4936570;29;20117;-94
2024/01/22 04:06:54;;;;;;;3.67;2.30;;;;;;;8.33;100.00;100389.13;4940082;29;20019;-92
2024/01/22 04:09:40;;;;;;;2.63;2.15;;;;;;;8.47;100.00;100422.53;4943410;28;20055;-94
2024/01/22 04:12:05;;;;;;;3.60;2.13;;;;;;;8.37;100.00;100400.25;4956682;29;20063;-93
2024/01/22 04:14:52;;;;;;;2.37;2.10;;;;;;;8.53;100.00;100406.94;4956583;29;20035;-94
2024/01/22 04:17:18;;;;;;;4.15;2.00;;;;;;;8.52;100.00;100425.09;4955946;29;20036;-94
2024/01/22 04:19:49;;;;;;;2.73;2.17;;;;;;;8.49;100.00;100400.97;4956213;29;20027;-93
2024/01/22 04:22:20;;;;;;;3.45;2.10;;;;;;;8.51;100.00;100388.00;4955584;29;20110;-93
2024/01/22 04:24:46;;;;;;;3.03;2.00;;;;;;;8.53;100.00;100408.69;4956648;29;20090;-92
2024/01/22 04:27:25;;;;;;;2.30;1.80;;;;;;;8.54;100.00;100406.06;4955701;28;20119;-93
2024/01/22 04:30:00;;;;;;;3.80;2.00;;;;;;;8.46;100.00;100377.69;4956199;29;20027;-92
2024/01/22 04:32:41;;;;;;;2.97;2.08;;;;;;;8.58;100.00;100378.44;4956108;29;20121;-93
2024/01/22 04:35:18;;;;;;;3.90;2.03;;;;;;;8.47;100.00;100373.41;4955576;29;20030;-93
2024/01/22 04:37:56;;;;;;;3.03;2.10;;;;;;;8.48;100.00;100375.16;4955489;29;20027;-94
2024/01/22 04:40:21;;;;;;;3.85;1.95;;;;;;;8.59;100.00;100399.13;4955508;29;20019;-94
2024/01/22 04:43:03;;;;;;;2.10;1.73;;;;;;;8.61;100.00;100381.81;4956346;28;20047;-93
2024/01/22 04:45:29;;;;;;;2.42;1.80;;;;;;;8.55;100.00;100370.75;4956075;28;20024;-93
2024/01/22 04:48:15;;;;;;;3.30;1.90;;;;;;;8.68;100.00;100392.94;4955660;29;20038;-94
2024/01/22 04:50:40;;;;;;;2.70;1.70;;;;;;;8.76;100.00;100379.91;4955760;29;20090;-92
2024/01/22 04:53:15;;;;;;;2.67;1.60;;;;;;;8.68;100.00;100374.81;4955791;29;20020;-94
2024/01/22 04:55:52;;;;;;;1.83;1.70;;;;;;;8.75;100.00;100365.25;4955890;29;20038;-94
2024/01/22 04:58:18;;;;;;;1.75;1.60;;;;;;;8.75;100.00;100371.28;4955982;29;20027;-93
2024/01/22 05:01:01;;;;;;;2.40;1.60;;;;;;;8.80;100.00;100353.09;4955722;29;20039;-93
2024/01/22 05:03:26;;;;;;;1.65;1.50;;;;;;;8.80;100.00;100366.88;4955409;29;20027;-94
2024/01/22 05:06:11;;;;;;;5.23;1.80;;;;;;;8.94;100.00;100384.81;4955127;29;20038;-92
2024/01/22 05:08:55;;;;;;;2.28;1.70;;;;;;;8.90;100.00;100352.06;4954950;29;20027;-93
2024/01/22 05:11:20;;;;;;;2.38;1.70;;;;;;;8.99;100.00;100371.78;4954552;28;20043;-93
2024/01/22 05:13:55;;;;;;;2.57;1.60;;;;;;;8.93;100.00;100359.81;4955004;29;20035;-93
2024/01/22 05:16:22;;;;;;;2.70;1.60;;;;;;;8.93;100.00;100364.97;4955292;29;20466;-93
2024/01/22 05:19:05;;;;;;;2.67;1.60;;;;;;;9.02;100.00;100342.41;4955404;29;20030;-92
2024/01/22 05:21:30;;;;;;;1.95;1.65;;;;;;;9.03;100.00;100351.88;4955349;29;20054;-92
2024/01/22 05:24:13;;;;;;;2.00;1.67;;;;;;;9.12;100.00;100341.34;4956141;29;20019;-94
2024/01/22 05:26:39;;;;;;;2.03;1.80;;;;;;;9.04;100.00;100345.81;4956147;28;20431;-94
2024/01/22 05:29:04;;;;;;;2.87;1.70;;;;;;;9.06;100.00;100342.31;4954702;29;20067;-88
2024/01/22 05:31:53;;;;;;;2.03;1.50;;;;;;;9.19;100.00;100357.66;4954886;29;20066;-88
2024/01/22 05:34:18;;;;;;;3.47;1.60;;;;;;;9.18;100.00;100345.56;4958589;29;20031;-96
2024/01/22 05:36:59;;;;;;;3.13;1.77;;;;;;;9.21;100.00;100353.31;4957338;29;20046;-96
2024/01/22 05:39:26;;;;;;;1.70;1.60;;;;;;;9.18;100.00;100333.47;4955093;29;20030;-92
2024/01/22 05:42:14;;;;;;;2.88;1.58;;;;;;;9.37;100.00;100378.03;4954906;29;20122;-93
2024/01/22 05:44:58;;;;;;;2.60;1.80;;;;;;;9.25;100.00;100352.34;4955911;29;20039;-92
2024/01/22 05:47:24;;;;;;;2.83;1.60;;;;;;;9.29;100.00;100364.38;4954886;29;20109;-91
2024/01/22 05:49:59;;;;;;;3.23;1.80;;;;;;;9.27;100.00;100359.22;4955436;29;20049;-92
2024/01/22 05:52:46;;;;;;;4.15;2.00;;;;;;;9.35;100.00;100377.19;4955703;29;20027;-91
2024/01/22 05:55:12;;;;;;;2.88;1.75;;;;;;;9.32;100.00;100392.81;4955629;29;20030;-91
2024/01/22 05:58:01;;;;;;;1.67;1.58;;;;;;;9.26;100.00;100375.66;4955563;29;20015;-92
2024/01/22 06:00:26;;;;;;;1.80;1.58;;;;;;;9.18;100.00;100367.13;4896197;29;20101;-92
2024/01/22 06:02:51;;;;;;;1.87;1.50;;;;;;;9.27;100.00;100387.72;4897493;29;20048;-93
2024/01/22 06:05:36;;;;;;;2.67;1.40;;;;;;;9.22;100.00;100370.53;4896948;29;20135;-93
2024/01/22 06:08:03;;;;;;;2.05;1.52;;;;;;;9.30;100.00;100394.56;4897987;29;20024;-92
2024/01/22 06:10:29;;;;;;;1.88;1.60;;;;;;;9.23;100.00;100392.97;4897564;29;20065;-94
2024/01/22 06:13:18;;;;;;;3.63;1.60;;;;;;;9.27;100.00;100392.88;4897759;29;20052;-93
2024/01/22 06:16:03;;;;;;;1.85;1.38;;;;;;;9.14;100.00;100393.09;4899237;29;20144;-93
2024/01/22 06:18:31;;;;;;;2.72;1.77;;;;;;;9.24;100.00;100371.34;4899934;29;20040;-94
2024/01/22 06:21:18;;;;;;;2.72;1.60;;;;;;;9.20;100.00;100383.50;4945696;28;20114;-93
2024/01/22 06:24:02;;;;;;;1.65;1.55;;;;;;;9.14;100.00;100365.50;4961693;29;20050;-93
2024/01/22 06:26:44;;;;;;;2.97;1.40;;;;;;;9.12;100.00;100381.03;4966590;28;20027;-92
2024/01/22 06:29:19;;;;;;;1.98;1.40;;;;;;;9.01;100.00;100359.66;4977245;29;20050;-93
2024/01/22 06:32:03;;;;;;;4.57;1.60;;;;;;;9.10;100.00;100385.41;4967143;29;20103;-91
2024/01/22 06:34:28;;;;;;;2.15;1.40;;;;;;;9.12;100.00;100398.31;4962345;29;20016;-93
2024/01/22 06:37:00;;;;;;;1.87;1.67;;;;;;;9.08;100.00;100387.16;5011899;23;20492;-93
2024/01/22 06:39:26;;;;;;;1.90;1.52;;;;;;;9.04;100.00;100372.53;4957921;29;20439;-93
2024/01/22 06:42:10;;;;;;;2.03;1.70;;;;;;;9.13;100.00;100394.84;4958297;29;20034;-92
2024/01/22 06:44:54;;;;;;;1.80;1.33;;;;;;;9.01;100.00;100364.81;4958143;29;20106;-92
2024/01/22 06:50:24;;;;;;;1.60;1.40;;;;;;;9.11;100.00;100383.66;4899025;29;20059;-93
2024/01/22 06:52:50;;;;;;;2.08;1.55;;;;;;;9.03;100.00;100399.31;4955846;29;20047;-92
2024/01/22 06:55:35;;;;;;;1.47;1.30;;;;;;;9.18;100.00;100449.97;4958348;29;20026;-93
2024/01/22 06:58:10;;;;;;;1.55;1.45;;;;;;;9.14;100.00;100413.81;5028867;23;20059;-92
2024/01/22 07:00:51;;;;;;;1.30;1.20;;;;;;;9.20;100.00;100416.31;4976917;28;20042;-90
2024/01/22 07:03:20;;;;;;;2.20;1.38;;;;;;;9.29;100.00;100407.56;4977124;28;20019;-92
2024/01/22 07:05:57;;;;;;;1.80;1.20;;;;;;;9.14;100.00;100401.75;4976611;28;20085;-92
2024/01/22 07:08:23;;;;;;;1.58;1.27;;;;;;;9.11;100.00;100397.47;4976674;28;20027;-93
2024/01/22 07:11:06;;;;;;;1.40;1.30;;;;;;;9.12;100.00;100409.50;4977453;28;20077;-93
2024/01/22 07:13:49;;;;;;;1.30;1.10;;;;;;;9.14;100.00;100419.84;4976257;28;20041;-87
2024/01/22 07:16:14;;;;;;;1.55;1.20;;;;;;;9.18;100.00;100402.53;4969302;28;20030;-86
2024/01/22 07:18:40;;;;;;;4.20;1.60;;;;;;;9.22;100.00;100412.81;4968449;28;20038;-92
2024/01/22 07:21:20;;;;;;;2.73;1.53;;;;;;;9.21;100.00;100429.22;4958971;28;20114;-87
2024/01/22 07:24:07;;;;;;;2.33;1.38;;;;;;;9.16;100.00;100410.34;4956267;29;20031;-88
2024/01/22 07:26:47;;;;;;;2.45;1.60;;;;;;;9.20;100.00;100416.31;4961202;28;20132;-87
2024/01/22 07:29:13;;;;;;;3.58;1.60;;;;;;;9.16;100.00;100412.06;4975316;28;20027;-88
2024/01/22 07:31:53;;;;;;;3.23;1.70;;;;;;;9.15;100.00;100400.00;4975281;28;20077;-87
2024/01/22 07:34:19;;;;;;;2.40;1.48;;;;;;;9.15;100.00;100412.94;4974825;28;20494;-88
2024/01/22 07:37:00;;;;;;;3.63;1.70;;;;;;;9.24;100.00;100429.19;4975773;28;20023;-90
2024/01/22 07:39:25;;;;;;;3.28;2.00;;;;;;;9.21;100.00;100413.69;4974830;28;20027;-89
2024/01/22 07:42:18;;;;;;;3.47;1.50;;;;;;;9.34;100.00;100432.50;4976803;28;20034;-90
2024/01/22 07:44:58;;;;;;;4.63;1.80;;;;;;;9.20;100.00;100399.03;4976124;28;20455;-90
2024/01/22 07:47:24;;;;;;;7.05;2.30;;;;;;;9.33;100.00;100416.97;4975334;28;20035;-90
2024/01/22 07:50:14;;;;;;;4.27;1.73;;;;;;;9.30;100.00;100412.69;4975817;28;20034;-89
2024/01/22 07:53:06;;;;;;;4.03;1.85;;;;;;;9.34;100.00;100436.78;4956671;28;20039;-91
2024/01/22 07:55:52;;;;;;;6.10;2.10;;;;;;;9.27;100.00;100421.38;4958906;28;20429;-91
2024/01/22 07:58:40;;;;;;;6.57;2.20;;;;;;;9.34;100.00;100441.97;4975254;28;20046;-90
2024/01/22 08:01:07;;;;;;;5.22;2.03;;;;;;;9.26;100.00;100426.56;4974833;28;20033;-88
2024/01/22 08:03:50;;;;;;;7.60;2.13;;;;;;;9.23;100.00;100422.28;4975216;28;20050;-89
2024/01/22 08:06:15;;;;;;;6.70;2.08;;;;;;;9.32;100.00;100441.13;4963936;28;20031;-89
2024/01/22 08:08:59;;;;;;;5.23;1.90;;;;;;;9.21;100.00;100418.03;4955215;29;20073;-86
2024/01/22 08:11:39;;;;;;;5.57;1.90;;;;;;;9.28;100.00;100453.28;4956933;29;20110;-94
2024/01/22 08:14:04;;;;;;;6.60;2.00;;;;;;;9.29;100.00;100442.06;4966828;28;20041;-92
2024/01/22 08:16:44;;;;;;;7.90;2.20;;;;;;;9.25;100.00;100446.44;4975852;28;20022;-91
2024/01/22 08:19:09;;;;;;;5.38;2.00;;;;;;;9.22;100.00;100467.19;4957779;28;20787;-85
2024/01/22 08:21:44;;;;;;;6.30;1.87;;;;;;;9.17;100.00;100452.59;4974781;28;20030;-84
2024/01/22 08:24:09;;;;;;;10.27;2.47;;;;;;;9.31;100.00;100506.75;4979545;28;20026;-84
2024/01/22 08:26:34;;;;;;;11.73;2.83;;;;;;;9.24;100.00;100490.47;4956980;28;20054;-86
2024/01/22 08:29:00;;;;;;;9.63;2.50;;;;;;;9.26;100.00;100458.50;4955321;28;20554;-86
2024/01/22 08:31:25;;;;;;;8.00;2.30;;;;;;;9.25;100.00;100490.47;4970416;28;20030;-86
2024/01/22 08:33:50;;;;;;;10.00;2.30;;;;;;;9.22;100.00;100469.78;4974780;28;20090;-86
2024/01/22 08:36:16;;;;;;;7.77;2.10;;;;;;;9.25;100.00;100484.41;4973415;28;20490;-87
2024/01/22 08:38:41;;;;;;;4.03;1.93;;;;;;;9.20;100.00;100474.13;4974682;28;20042;-87
2024/01/22 08:41:09;;;;;;;4.33;1.87;;;;;;;9.22;100.00;100479.28;4974405;28;20031;-87
2024/01/22 08:43:37;;;;;;;7.32;1.92;;;;;;;9.16;100.00;100469.00;4974356;28;20114;-85
2024/01/22 08:46:02;;;;;;;6.90;2.10;;;;;;;9.17;100.00;100502.66;4974804;28;20073;-90
2024/01/22 08:48:27;;;;;;;9.07;2.00;;;;;;;9.17;100.00;100499.22;4974751;28;20067;-90
2024/01/22 08:50:55;;;;;;;10.57;2.10;;;;;;;9.12;100.00;100492.34;4964767;28;20067;-87
2024/01/22 08:53:20;;;;;;;13.13;3.10;;;;;;;9.11;100.00;100490.69;4954113;29;20424;-86
2024/01/22 08:55:46;;;;;;;7.63;2.10;;;;;;;9.13;100.00;100482.88;4954681;28;20115;-89
2024/01/22 08:58:30;;;;;;;9.93;2.70;;;;;;;9.07;100.00;100488.13;4954957;28;20085;-87
2024/01/22 09:00:55;;;;;;;7.57;2.15;;;;;;;9.12;100.00;100494.94;4968270;28;20402;-89
2024/01/22 09:03:36;;;;;;;7.37;2.30;;;;;;;9.01;100.00;100463.19;4964362;28;20042;-88
2024/01/22 09:06:04;;;;;;;10.65;2.40;;;;;;;9.05;100.00;100467.44;4974314;28;20034;-88
2024/01/22 09:08:42;;;;;;;7.15;1.98;;;;;;;9.15;100.00;100483.72;4940231;28;20039;-90
2024/01/22 09:11:08;;;;;;;9.20;2.33;;;;;;;9.12;100.00;100466.47;4974908;28;20114;-95
2024/01/22 09:13:48;;;;;;;11.27;2.60;;;;;;;9.14;100.00;100486.31;4975686;28;20058;-95
2024/01/22 09:16:14;;;;;;;9.38;2.20;;;;;;;9.05;100.00;100470.03;4975266;28;20090;-90
2024/01/22 09:18:58;;;;;;;10.88;2.55;;;;;;;9.02;100.00;100458.88;4974929;28;20111;-96
2024/01/22 09:21:24;;;;;;;13.13;2.85;;;;;;;9.04;100.00;100459.72;4975480;28;20084;-89
2024/01/22 09:23:49;;;;;;;11.67;2.80;;;;;;;9.07;100.00;100472.59;4976614;28;20077;-90
2024/01/22 09:26:29;;;;;;;12.63;2.30;;;;;;;8.98;100.00;100439.97;4974678;28;20125;-89
2024/01/22 09:28:55;;;;;;;12.40;2.63;;;;;;;9.04;100.00;100463.16;4975322;28;20026;-91
2024/01/22 09:31:42;;;;;;;13.23;2.63;;;;;;;9.03;100.00;100465.78;4977020;28;20106;-95
2024/01/22 09:35:07;;;;;;;11.18;2.30;;;;;;;8.95;100.00;100447.75;4975965;28;20022;-96
2024/01/22 09:37:54;;;;;;;10.23;2.53;;;;;;;9.05;100.00;100451.06;4936126;29;20028;-96
2024/01/22 09:40:49;;;;;;;8.85;2.25;;;;;;;9.01;100.00;100452.00;4936676;29;20544;-96
2024/01/22 09:48:48;;;;;;;10.00;2.30;;;;;;;9.14;100.00;100494.06;4934605;29;20051;-92
2024/01/22 09:51:14;;;;;;;11.73;2.80;;;;;;;9.15;100.00;100485.44;4936445;29;20023;-92
2024/01/22 09:54:07;;;;;;;9.43;2.33;;;;;;;9.11;100.00;100497.56;4937039;29;20031;-93
2024/01/22 09:56:54;;;;;;;8.65;1.95;;;;;;;9.00;100.00;100484.81;4936962;29;20102;-94
2024/01/22 09:59:43;;;;;;;9.57;2.63;;;;;;;9.07;100.00;100486.41;4937256;29;20028;-93
2024/01/22 10:02:31;;;;;;;7.95;2.08;;;;;;;9.05;100.00;100489.91;4939618;29;20036;-94
2024/01/22 10:05:22;;;;;;;6.07;1.80;;;;;;;9.11;100.00;100508.78;4942596;29;20039;-96
2024/01/22 10:07:48;;;;;;;8.85;2.17;;;;;;;9.14;100.00;100513.06;4946602;29;20360;-92
2024/01/22 10:10:29;;;;;;;4.65;1.70;;;;;;;9.19;100.00;100497.47;4908004;29;20063;-90
2024/01/22 10:13:19;;;;;;;6.25;1.95;;;;;;;9.23;100.00;100592.34;4946959;29;20039;-95
2024/01/22 10:15:44;;;;;;;4.82;1.75;;;;;;;9.04;100.00;100599.50;4924112;29;20098;-94
2024/01/22 10:18:28;;;;;;;9.07;1.73;;;;;;;8.63;100.00;100573.25;4924146;29;20064;-95
2024/01/22 10:20:56;;;;;;;6.28;1.90;;;;;;;8.43;100.00;100592.41;4923706;29;20028;-91
2024/01/22 10:23:22;;;;;;;6.97;1.70;;;;;;;8.25;100.00;100592.56;4927410;29;20032;-95
2024/01/22 10:26:07;;;;;;;9.67;2.40;;;;;;;8.11;100.00;100623.72;4927538;29;20481;-96
2024/01/22 10:28:32;;;;;;;8.87;2.13;;;;;;;7.97;100.00;100618.69;4929854;29;20043;-96
2024/01/22 10:31:22;;;;;;;9.20;2.07;;;;;;;7.92;100.00;100629.06;4933359;29;20284;-96
2024/01/22 10:33:48;;;;;;;11.77;2.40;;;;;;;7.80;100.00;100622.25;4941341;28;20040;-94
2024/01/22 10:36:34;;;;;;;16.90;2.80;;;;;;;7.91;100.00;100640.25;4931431;29;20024;-94
2024/01/22 10:39:04;;;;;;;16.17;2.75;;;;;;;7.72;100.00;100622.28;4967241;29;20035;-96
2024/01/22 10:41:29;;;;;;;13.52;2.63;;;;;;;7.78;100.00;100630.88;4967128;29;20031;-96
2024/01/22 10:44:26;;;;;;;16.47;3.17;;;;;;;7.83;100.00;100639.44;4967567;29;20427;-96
2024/01/22 10:47:13;;;;;;;14.10;2.75;;;;;;;7.80;100.00;100642.91;4971034;29;20109;-96
2024/01/22 10:49:42;;;;;;;11.98;2.85;;;;;;;7.81;100.00;100649.78;4962806;29;20031;-96
2024/01/22 10:52:27;;;;;;;16.65;3.30;;;;;;;7.80;100.00;100642.06;4931286;29;20039;-96
2024/01/22 10:54:53;;;;;;;15.07;3.00;;;;;;;7.70;100.00;100628.34;4962139;29;20027;-96
2024/01/22 10:57:46;;;;;;;16.97;3.00;;;;;;;7.80;100.00;100647.22;4966132;28;20027;-96
2024/01/22 11:00:36;;;;;;;14.85;3.00;;;;;;;7.81;100.00;100652.38;4961820;29;20038;-94
2024/01/22 11:03:18;;;;;;;17.42;3.42;;;;;;;7.75;100.00;100624.03;4960382;29;20104;-95
2024/01/22 11:05:46;;;;;;;15.50;3.13;;;;;;;7.79;100.00;100630.00;4959855;29;20114;-96
2024/01/22 11:08:33;;;;;;;9.40;2.53;;;;;;;7.70;100.00;100621.47;4958942;29;20535;-95
2024/01/22 11:11:13;;;;;;;12.65;2.78;;;;;;;7.79;100.00;100640.34;4958834;29;20046;-95
2024/01/22 11:16:52;;;;;;;13.30;3.13;;;;;;;7.85;100.00;100648.03;4907768;29;20127;-94
2024/01/22 11:19:45;;;;;;;16.48;3.15;;;;;;;7.93;100.00;100659.19;4904221;29;20039;-95
2024/01/22 11:22:36;;;;;;;16.27;3.35;;;;;;;7.82;100.00;100637.75;4920527;29;20115;-94
2024/01/22 11:25:09;;;;;;;20.30;3.85;;;;;;;7.93;100.00;100660.91;4881523;29;20064;-95
2024/01/22 11:27:50;;;;;;;19.08;3.75;;;;;;;7.99;100.00;100672.06;4881390;29;20386;-95
2024/01/22 11:30:32;;;;;;;12.25;2.90;;;;;;;8.01;100.00;100672.03;4908572;29;20044;-96
2024/01/22 11:32:57;;;;;;;18.52;3.67;;;;;;;8.07;100.00;100682.34;4921064;29;20035;-96
2024/01/22 11:35:43;;;;;;;17.37;3.67;;;;;;;8.04;100.00;100683.25;4921296;29;20028;-95
2024/01/22 11:41:32;;;;;;;20.60;4.07;;;;;;;8.09;100.00;100690.09;5033395;23;20515;-94
2024/01/22 11:44:27;;;;;;;20.60;3.95;;;;;;;8.06;100.00;100670.28;4957995;29;20031;-96
2024/01/22 11:47:21;;;;;;;19.63;3.50;;;;;;;8.30;100.00;100699.41;4959677;29;20078;-91
2024/01/22 11:49:47;;;;;;;24.05;4.55;;;;;;;8.33;100.00;100676.13;4958453;29;20051;-96
2024/01/22 11:52:37;;;;;;;23.03;4.40;;;;;;;8.58;100.00;100710.41;4959824;29;20078;-96
2024/01/22 11:55:18;;;;;;;21.67;4.63;;;;;;;8.72;100.00;100724.94;4960458;29;20031;-94
2024/01/22 11:58:12;;;;;;;23.40;4.65;;;;;;;8.68;100.00;100699.97;4959084;29;20024;-96
2024/01/22 12:00:38;;;;;;;18.77;3.95;;;;;;;8.85;100.00;100711.00;4882594;29;20052;-95
2024/01/22 12:03:51;;;;;;;20.13;4.07;;;;;;;8.95;100.00;100727.28;4886867;29;20033;-96
2024/01/22 12:06:19;;;;;;;23.35;4.45;;;;;;;8.99;100.00;100749.69;4891627;29;20033;-96
2024/01/22 12:08:57;;;;;;;17.52;3.70;;;;;;;8.94;100.00;100718.69;4902203;29;20140;-96
2024/01/22 12:11:23;;;;;;;19.33;3.90;;;;;;;9.05;100.00;100712.53;4890817;29;20033;-96
2024/01/22 12:13:48;;;;;;;22.23;4.57;;;;;;;9.09;100.00;100724.56;4909159;29;20079;-96
2024/01/22 12:16:14;;;;;;;24.03;4.33;;;;;;;9.29;100.00;100737.28;5197995;23;20058;-95
2024/01/22 12:19:28;;;;;;;19.20;3.77;;;;;;;9.24;100.00;100720.91;4931935;28;20062;-96
2024/01/22 12:21:54;;;;;;;21.00;4.22;;;;;;;9.27;100.00;100719.19;4993528;28;20023;-95
2024/01/22 12:24:20;;;;;;;20.17;4.23;;;;;;;9.42;100.00;100754.41;4997104;28;20057;-96